sensor_id;sensor_type;location;lat;lon;timestamp;pressure;altitude;pressure_sealevel;temperature;humidity
40013;BME280;37387;42.672;23.334;2023-03-24T00:00:03;944.9;;;6.3;100.0
40013;BME280;37387;42.672;23.334;2023-03-24T00:04:02;944.9;;;6.4;100.0
40013;BME280;37387;42.672;23.334;2023-03-24T00:05:02;944.9;;;6.3;100.0
40013;BME280;37387;42.672;23.334;2023-03-24T00:08:02;944.9;;;6.2;100.0
40013;BME280;37387;42.672;23.334;2023-03-24T00:12:02;944.9;;;6.1;100.0
40013;BME280;37387;42.672;23.334;2023-03-24T00:13:02;944.9;;;6.2;100.0
40013;BME280;37387;42.672;23.334;2023-03-24T00:16:02;944.8;;;6.1;100.0
40013;BME280;37387;42.672;23.334;2023-03-24T00:22:02;944.9;;;6.2;100.0
40013;BME280;37387;42.672;23.334;2023-03-24T00:28:02;945.0;;;6.1;100.0
40013;BME280;37387;42.672;23.334;2023-03-24T00:32:02;944.9;;;6.0;100.0
40013;BME280;37387;42.672;23.334;2023-03-24T00:38:02;944.9;;;5.9;100.0
40013;BME280;37387;42.672;23.334;2023-03-24T00:40:02;944.9;;;6.0;100.0
40013;BME280;37387;42.672;23.334;2023-03-24T00:41:03;944.9;;;5.9;100.0
40013;BME280;37387;42.672;23.334;2023-03-24T00:45:02;944.9;;;5.8;100.0
40013;BME280;37387;42.672;23.334;2023-03-24T00:54:04;944.8;;;5.7;100.0
40013;BME280;37387;42.672;23.334;2023-03-24T00:57:02;944.8;;;5.8;100.0
40013;BME280;37387;42.672;23.334;2023-03-24T00:58:02;944.8;;;5.7;100.0
40013;BME280;37387;42.672;23.334;2023-03-24T01:02:02;944.8;;;5.6;100.0
40013;BME280;37387;42.672;23.334;2023-03-24T01:16:02;944.7;;;5.7;100.0
40013;BME280;37387;42.672;23.334;2023-03-24T01:25:02;944.7;;;5.8;100.0
40013;BME280;37387;42.672;23.334;2023-03-24T01:26:03;944.7;;;5.7;100.0
40013;BME280;37387;42.672;23.334;2023-03-24T01:28:02;944.7;;;5.6;100.0
40013;BME280;37387;42.672;23.334;2023-03-24T01:33:02;944.7;;;5.5;100.0
40013;BME280;37387;42.672;23.334;2023-03-24T01:37:02;944.7;;;5.4;100.0
40013;BME280;37387;42.672;23.334;2023-03-24T01:40:02;944.6;;;5.3;100.0
40013;BME280;37387;42.672;23.334;2023-03-24T01:47:02;944.7;;;5.1;100.0
40013;BME280;37387;42.672;23.334;2023-03-24T01:54:03;944.7;;;5.2;100.0
40013;BME280;37387;42.672;23.334;2023-03-24T01:55:04;944.7;;;5.1;100.0
40013;BME280;37387;42.672;23.334;2023-03-24T02:04:03;944.7;;;5.2;100.0
40013;BME280;37387;42.672;23.334;2023-03-24T02:06:02;944.7;;;5.1;100.0
40013;BME280;37387;42.672;23.334;2023-03-24T02:10:04;944.7;;;5.0;100.0
40013;BME280;37387;42.672;23.334;2023-03-24T02:16:06;944.8;;;4.9;100.0
40013;BME280;37387;42.672;23.334;2023-03-24T02:35:09;944.8;;;4.7;100.0
40013;BME280;37387;42.672;23.334;2023-03-24T02:40:04;944.8;;;4.7;100.0
40013;BME280;37387;42.672;23.334;2023-03-24T02:42:04;944.7;;;4.6;100.0
40013;BME280;37387;42.672;23.334;2023-03-24T02:43:05;944.7;;;4.7;100.0
40013;BME280;37387;42.672;23.334;2023-03-24T02:57:03;944.5;;;4.8;100.0
40013;BME280;37387;42.672;23.334;2023-03-24T03:02:02;944.5;;;4.9;100.0
40013;BME280;37387;42.672;23.334;2023-03-24T03:08:02;944.4;;;5.0;100.0
40013;BME280;37387;42.672;23.334;2023-03-24T03:13:03;944.4;;;5.1;100.0
40013;BME280;37387;42.672;23.334;2023-03-24T03:18:04;944.4;;;5.0;100.0
40013;BME280;37387;42.672;23.334;2023-03-24T03:19:03;944.5;;;5.1;100.0
40013;BME280;37387;42.672;23.334;2023-03-24T03:35:04;944.4;;;5.2;100.0
40013;BME280;37387;42.672;23.334;2023-03-24T03:36:03;944.4;;;5.1;100.0
40013;BME280;37387;42.672;23.334;2023-03-24T03:38:05;944.3;;;5.2;100.0
40013;BME280;37387;42.672;23.334;2023-03-24T03:51:02;944.4;;;5.1;100.0
40013;BME280;37387;42.672;23.334;2023-03-24T03:53:02;944.5;;;5.0;100.0
40013;BME280;37387;42.672;23.334;2023-03-24T04:08:05;944.6;;;4.9;100.0
40013;BME280;37387;42.672;23.334;2023-03-24T04:14:07;944.6;;;5.0;100.0
40013;BME280;37387;42.672;23.334;2023-03-24T04:17:03;944.6;;;5.0;100.0
40013;BME280;37387;42.672;23.334;2023-03-24T04:18:05;944.6;;;4.9;100.0
40013;BME280;37387;42.672;23.334;2023-03-24T04:19:06;944.6;;;4.8;100.0
40013;BME280;37387;42.672;23.334;2023-03-24T04:28:03;944.6;;;4.7;100.0
40013;BME280;37387;42.672;23.334;2023-03-24T04:29:04;944.6;;;4.8;100.0
40013;BME280;37387;42.672;23.334;2023-03-24T04:31:03;944.6;;;4.9;100.0
40013;BME280;37387;42.672;23.334;2023-03-24T04:32:03;944.6;;;4.8;100.0
40013;BME280;37387;42.672;23.334;2023-03-24T04:38:03;944.6;;;4.9;100.0
40013;BME280;37387;42.672;23.334;2023-03-24T04:42:03;944.7;;;5.0;100.0
40013;BME280;37387;42.672;23.334;2023-03-24T04:43:03;944.7;;;5.1;100.0
40013;BME280;37387;42.672;23.334;2023-03-24T04:46:02;944.8;;;5.0;100.0
40013;BME280;37387;42.672;23.334;2023-03-24T04:48:03;944.8;;;5.1;100.0
40013;BME280;37387;42.672;23.334;2023-03-24T04:52:02;944.9;;;5.2;100.0
40013;BME280;37387;42.672;23.334;2023-03-24T04:54:02;944.9;;;5.3;100.0
40013;BME280;37387;42.672;23.334;2023-03-24T04:57:02;944.9;;;5.4;100.0
40013;BME280;37387;42.672;23.334;2023-03-24T04:58:02;944.9;;;5.5;100.0
40013;BME280;37387;42.672;23.334;2023-03-24T04:59:02;945.0;;;5.4;100.0
40013;BME280;37387;42.672;23.334;2023-03-24T05:01:02;945.0;;;6.1;100.0
40013;BME280;37387;42.672;23.334;2023-03-24T05:02:02;945.0;;;6.9;100.0
40013;BME280;37387;42.672;23.334;2023-03-24T05:03:02;945.1;;;7.7;100.0
40013;BME280;37387;42.672;23.334;2023-03-24T05:04:02;945.1;;;8.6;100.0
40013;BME280;37387;42.672;23.334;2023-03-24T05:05:02;945.1;;;9.6;100.0
40013;BME280;37387;42.672;23.334;2023-03-24T05:06:02;945.2;;;10.0;100.0
40013;BME280;37387;42.672;23.334;2023-03-24T05:07:02;945.2;;;10.5;100.0
40013;BME280;37387;42.672;23.334;2023-03-24T05:08:02;945.2;;;11.1;100.0
40013;BME280;37387;42.672;23.334;2023-03-24T05:09:02;945.2;;;11.8;100.0
40013;BME280;37387;42.672;23.334;2023-03-24T05:10:02;945.3;;;11.7;93.2
40013;BME280;37387;42.672;23.334;2023-03-24T05:11:02;945.3;;;12.4;90.1
40013;BME280;37387;42.672;23.334;2023-03-24T05:12:02;945.3;;;12.8;78.7
40013;BME280;37387;42.672;23.334;2023-03-24T05:13:02;945.3;;;13.8;78.7
40013;BME280;37387;42.672;23.334;2023-03-24T05:14:02;945.4;;;14.3;74.5
40013;BME280;37387;42.672;23.334;2023-03-24T05:15:02;945.4;;;15.0;67.8
40013;BME280;37387;42.672;23.334;2023-03-24T05:16:02;945.4;;;15.5;64.3
40013;BME280;37387;42.672;23.334;2023-03-24T05:17:02;945.4;;;16.1;58.6
40013;BME280;37387;42.672;23.334;2023-03-24T05:19:02;945.4;;;15.9;54.3
40013;BME280;37387;42.672;23.334;2023-03-24T05:20:02;945.4;;;16.2;53.6
40013;BME280;37387;42.672;23.334;2023-03-24T05:21:02;945.4;;;15.1;53.3
40013;BME280;37387;42.672;23.334;2023-03-24T05:22:02;945.3;;;13.2;53.9
40013;BME280;37387;42.672;23.334;2023-03-24T05:23:02;945.3;;;14.1;59.9
40013;BME280;37387;42.672;23.334;2023-03-24T05:24:02;945.4;;;15.1;56.4
40013;BME280;37387;42.672;23.334;2023-03-24T05:25:02;945.4;;;15.6;56.4
40013;BME280;37387;42.672;23.334;2023-03-24T05:26:02;945.4;;;13.5;53.6
40013;BME280;37387;42.672;23.334;2023-03-24T05:27:02;945.4;;;13.9;57.3
40013;BME280;37387;42.672;23.334;2023-03-24T05:28:02;945.4;;;13.2;59.3
40013;BME280;37387;42.672;23.334;2023-03-24T05:29:02;945.4;;;12.7;63.4
40013;BME280;37387;42.672;23.334;2023-03-24T05:30:02;945.4;;;13.9;63.4
40013;BME280;37387;42.672;23.334;2023-03-24T05:31:02;945.4;;;14.5;59.3
40013;BME280;37387;42.672;23.334;2023-03-24T05:32:02;945.5;;;15.5;53.7
40013;BME280;37387;42.672;23.334;2023-03-24T05:33:02;945.5;;;16.4;50.6
40013;BME280;37387;42.672;23.334;2023-03-24T05:34:02;945.5;;;15.3;53.0
40013;BME280;37387;42.672;23.334;2023-03-24T05:35:02;945.5;;;15.6;53.0
40013;BME280;37387;42.672;23.334;2023-03-24T05:36:02;945.5;;;15.9;51.2
40013;BME280;37387;42.672;23.334;2023-03-24T05:37:02;945.5;;;16.4;51.2
40013;BME280;37387;42.672;23.334;2023-03-24T05:38:02;945.5;;;16.2;50.7
40013;BME280;37387;42.672;23.334;2023-03-24T05:39:02;945.5;;;17.3;48.8
40013;BME280;37387;42.672;23.334;2023-03-24T05:40:02;945.5;;;17.2;48.8
40013;BME280;37387;42.672;23.334;2023-03-24T05:41:02;945.5;;;17.4;47.8
40013;BME280;37387;42.672;23.334;2023-03-24T05:42:02;945.5;;;17.7;46.9
40013;BME280;37387;42.672;23.334;2023-03-24T05:43:02;945.5;;;18.4;47.1
40013;BME280;37387;42.672;23.334;2023-03-24T05:44:02;945.5;;;18.5;45.9
40013;BME280;37387;42.672;23.334;2023-03-24T05:45:02;945.5;;;18.3;44.2
40013;BME280;37387;42.672;23.334;2023-03-24T05:46:02;945.5;;;19.0;45.0
40013;BME280;37387;42.672;23.334;2023-03-24T05:47:02;945.5;;;19.9;43.7
40013;BME280;37387;42.672;23.334;2023-03-24T05:48:02;945.5;;;20.2;41.6
40013;BME280;37387;42.672;23.334;2023-03-24T05:50:02;945.5;;;21.0;40.9
40013;BME280;37387;42.672;23.334;2023-03-24T05:51:02;945.5;;;20.5;39.2
40013;BME280;37387;42.672;23.334;2023-03-24T05:52:02;945.5;;;19.1;39.8
40013;BME280;37387;42.672;23.334;2023-03-24T05:53:02;945.5;;;17.2;41.7
40013;BME280;37387;42.672;23.334;2023-03-24T05:54:02;945.4;;;16.0;45.6
40013;BME280;37387;42.672;23.334;2023-03-24T05:55:02;945.4;;;15.4;49.0
40013;BME280;37387;42.672;23.334;2023-03-24T05:56:02;945.4;;;15.6;51.1
40013;BME280;37387;42.672;23.334;2023-03-24T05:57:02;945.4;;;16.7;52.3
40013;BME280;37387;42.672;23.334;2023-03-24T05:58:02;945.5;;;16.6;49.3
40013;BME280;37387;42.672;23.334;2023-03-24T05:59:02;945.5;;;17.3;49.6
40013;BME280;37387;42.672;23.334;2023-03-24T06:00:02;945.4;;;18.0;48.6
40013;BME280;37387;42.672;23.334;2023-03-24T06:01:04;945.5;;;17.6;46.3
40013;BME280;37387;42.672;23.334;2023-03-24T06:02:02;945.5;;;18.9;48.0
40013;BME280;37387;42.672;23.334;2023-03-24T06:03:02;945.5;;;17.9;44.8
40013;BME280;37387;42.672;23.334;2023-03-24T06:04:02;945.5;;;18.5;45.8
40013;BME280;37387;42.672;23.334;2023-03-24T06:05:02;945.5;;;19.3;46.5
40013;BME280;37387;42.672;23.334;2023-03-24T06:08:02;945.6;;;18.1;44.0
40013;BME280;37387;42.672;23.334;2023-03-24T06:09:02;945.6;;;18.2;46.1
40013;BME280;37387;42.672;23.334;2023-03-24T06:10:02;945.6;;;17.9;47.9
40013;BME280;37387;42.672;23.334;2023-03-24T06:11:02;945.6;;;17.6;46.9
40013;BME280;37387;42.672;23.334;2023-03-24T06:12:02;945.6;;;17.2;48.5
40013;BME280;37387;42.672;23.334;2023-03-24T06:13:02;945.5;;;18.0;49.2
40013;BME280;37387;42.672;23.334;2023-03-24T06:14:02;945.6;;;20.1;48.5
40013;BME280;37387;42.672;23.334;2023-03-24T06:15:02;945.6;;;20.9;44.1
40013;BME280;37387;42.672;23.334;2023-03-24T06:16:02;945.6;;;20.4;41.3
40013;BME280;37387;42.672;23.334;2023-03-24T06:17:02;945.7;;;20.8;41.0
40013;BME280;37387;42.672;23.334;2023-03-24T06:18:02;945.6;;;18.7;43.5
40013;BME280;37387;42.672;23.334;2023-03-24T06:19:05;945.6;;;17.8;46.3
40013;BME280;37387;42.672;23.334;2023-03-24T06:21:02;945.6;;;18.0;46.6
40013;BME280;37387;42.672;23.334;2023-03-24T06:22:02;945.6;;;18.1;46.6
40013;BME280;37387;42.672;23.334;2023-03-24T06:23:02;945.6;;;18.0;46.6
40013;BME280;37387;42.672;23.334;2023-03-24T06:24:02;945.6;;;16.8;49.6
40013;BME280;37387;42.672;23.334;2023-03-24T06:25:02;945.6;;;16.9;49.6
40013;BME280;37387;42.672;23.334;2023-03-24T06:26:06;945.6;;;16.7;50.1
40013;BME280;37387;42.672;23.334;2023-03-24T06:27:02;945.6;;;16.6;51.2
40013;BME280;37387;42.672;23.334;2023-03-24T06:28:02;945.6;;;16.9;51.2
40013;BME280;37387;42.672;23.334;2023-03-24T06:29:02;945.6;;;17.2;50.2
40013;BME280;37387;42.672;23.334;2023-03-24T06:30:02;945.6;;;16.6;49.1
40013;BME280;37387;42.672;23.334;2023-03-24T06:32:02;945.6;;;16.2;50.9
40013;BME280;37387;42.672;23.334;2023-03-24T06:33:02;945.6;;;16.3;52.0
40013;BME280;37387;42.672;23.334;2023-03-24T06:34:02;945.6;;;17.0;52.0
40013;BME280;37387;42.672;23.334;2023-03-24T06:35:02;945.6;;;17.8;51.0
40013;BME280;37387;42.672;23.334;2023-03-24T06:36:02;945.6;;;18.0;47.4
40013;BME280;37387;42.672;23.334;2023-03-24T06:37:02;945.7;;;17.3;48.2
40013;BME280;37387;42.672;23.334;2023-03-24T06:38:02;945.7;;;17.2;48.2
40013;BME280;37387;42.672;23.334;2023-03-24T06:39:02;945.6;;;16.7;48.7
40013;BME280;37387;42.672;23.334;2023-03-24T06:40:02;945.7;;;17.3;50.4
40013;BME280;37387;42.672;23.334;2023-03-24T06:41:02;945.6;;;18.0;48.2
40013;BME280;37387;42.672;23.334;2023-03-24T06:42:02;945.7;;;18.7;48.2
40013;BME280;37387;42.672;23.334;2023-03-24T06:43:02;945.7;;;19.3;46.1
40013;BME280;37387;42.672;23.334;2023-03-24T06:44:02;945.8;;;19.9;44.9
40013;BME280;37387;42.672;23.334;2023-03-24T06:45:02;945.7;;;20.1;43.5
40013;BME280;37387;42.672;23.334;2023-03-24T06:46:02;945.7;;;19.5;43.4
40013;BME280;37387;42.672;23.334;2023-03-24T06:47:02;945.7;;;19.9;43.6
40013;BME280;37387;42.672;23.334;2023-03-24T06:48:02;945.7;;;20.8;42.9
40013;BME280;37387;42.672;23.334;2023-03-24T06:49:02;945.8;;;22.0;41.3
40013;BME280;37387;42.672;23.334;2023-03-24T06:50:02;945.9;;;22.8;39.2
40013;BME280;37387;42.672;23.334;2023-03-24T06:51:02;945.7;;;22.3;37.6
40013;BME280;37387;42.672;23.334;2023-03-24T06:52:02;945.8;;;22.1;37.7
40013;BME280;37387;42.672;23.334;2023-03-24T06:53:02;945.8;;;21.6;38.7
40013;BME280;37387;42.672;23.334;2023-03-24T06:54:02;945.7;;;21.5;38.7
40013;BME280;37387;42.672;23.334;2023-03-24T06:55:02;945.7;;;21.4;39.8
40013;BME280;37387;42.672;23.334;2023-03-24T06:56:02;945.8;;;22.1;39.8
40013;BME280;37387;42.672;23.334;2023-03-24T06:57:02;945.8;;;22.2;38.0
40013;BME280;37387;42.672;23.334;2023-03-24T06:58:02;945.7;;;22.4;37.5
40013;BME280;37387;42.672;23.334;2023-03-24T06:59:02;945.7;;;23.3;37.5
40013;BME280;37387;42.672;23.334;2023-03-24T07:01:02;945.7;;;23.2;35.8
40013;BME280;37387;42.672;23.334;2023-03-24T07:02:02;945.7;;;21.9;35.9
40013;BME280;37387;42.672;23.334;2023-03-24T07:03:02;945.7;;;21.6;37.7
40013;BME280;37387;42.672;23.334;2023-03-24T07:04:02;945.8;;;21.8;38.9
40013;BME280;37387;42.672;23.334;2023-03-24T07:05:03;945.8;;;21.4;38.7
40013;BME280;37387;42.672;23.334;2023-03-24T07:06:02;945.7;;;21.1;38.6
40013;BME280;37387;42.672;23.334;2023-03-24T07:07:02;945.7;;;21.5;39.4
40013;BME280;37387;42.672;23.334;2023-03-24T07:08:02;945.7;;;21.6;39.0
40013;BME280;37387;42.672;23.334;2023-03-24T07:09:02;945.8;;;21.2;38.9
40013;BME280;37387;42.672;23.334;2023-03-24T07:10:02;945.8;;;22.5;39.2
40013;BME280;37387;42.672;23.334;2023-03-24T07:11:02;945.8;;;23.0;36.6
40013;BME280;37387;42.672;23.334;2023-03-24T07:13:02;945.8;;;22.4;36.8
40013;BME280;37387;42.672;23.334;2023-03-24T07:14:02;945.9;;;21.6;38.1
40013;BME280;37387;42.672;23.334;2023-03-24T07:15:02;945.8;;;20.5;38.1
40013;BME280;37387;42.672;23.334;2023-03-24T07:16:02;945.8;;;20.1;40.0
40013;BME280;37387;42.672;23.334;2023-03-24T07:17:02;945.8;;;20.3;40.6
40013;BME280;37387;42.672;23.334;2023-03-24T07:18:02;945.9;;;20.8;41.0
40013;BME280;37387;42.672;23.334;2023-03-24T07:19:02;945.9;;;20.2;40.2
40013;BME280;37387;42.672;23.334;2023-03-24T07:20:02;945.8;;;20.3;41.3
40013;BME280;37387;42.672;23.334;2023-03-24T07:21:02;945.9;;;20.8;40.6
40013;BME280;37387;42.672;23.334;2023-03-24T07:22:02;945.9;;;21.6;40.6
40013;BME280;37387;42.672;23.334;2023-03-24T07:23:02;945.9;;;22.7;39.2
40013;BME280;37387;42.672;23.334;2023-03-24T07:24:02;945.9;;;21.3;37.4
40013;BME280;37387;42.672;23.334;2023-03-24T07:25:02;945.9;;;20.8;40.3
40013;BME280;37387;42.672;23.334;2023-03-24T07:26:02;945.9;;;20.9;40.3
40013;BME280;37387;42.672;23.334;2023-03-24T07:27:02;945.9;;;21.6;39.9
40013;BME280;37387;42.672;23.334;2023-03-24T07:28:02;945.9;;;22.0;38.7
40013;BME280;37387;42.672;23.334;2023-03-24T07:29:02;945.9;;;22.7;37.1
40013;BME280;37387;42.672;23.334;2023-03-24T07:30:02;945.9;;;23.5;37.1
40013;BME280;37387;42.672;23.334;2023-03-24T07:31:02;945.9;;;24.5;34.9
40013;BME280;37387;42.672;23.334;2023-03-24T07:32:02;945.9;;;23.2;34.9
40013;BME280;37387;42.672;23.334;2023-03-24T07:33:02;945.9;;;23.7;35.5
40013;BME280;37387;42.672;23.334;2023-03-24T07:34:02;945.9;;;24.5;35.5
40013;BME280;37387;42.672;23.334;2023-03-24T07:35:02;945.9;;;24.8;33.9
40013;BME280;37387;42.672;23.334;2023-03-24T07:36:02;945.9;;;24.2;34.3
40013;BME280;37387;42.672;23.334;2023-03-24T07:37:02;945.8;;;23.1;34.3
40013;BME280;37387;42.672;23.334;2023-03-24T07:38:02;945.8;;;23.8;35.9
40013;BME280;37387;42.672;23.334;2023-03-24T07:39:02;945.9;;;24.1;35.6
40013;BME280;37387;42.672;23.334;2023-03-24T07:40:02;945.9;;;24.3;34.7
40013;BME280;37387;42.672;23.334;2023-03-24T07:41:02;945.8;;;25.2;33.3
40013;BME280;37387;42.672;23.334;2023-03-24T07:42:02;945.8;;;23.6;34.9
40013;BME280;37387;42.672;23.334;2023-03-24T07:43:03;945.8;;;22.0;34.9
40013;BME280;37387;42.672;23.334;2023-03-24T07:44:02;945.8;;;22.1;38.1
40013;BME280;37387;42.672;23.334;2023-03-24T07:45:02;945.8;;;23.3;36.4
40013;BME280;37387;42.672;23.334;2023-03-24T07:46:02;945.8;;;23.4;36.4
40013;BME280;37387;42.672;23.334;2023-03-24T07:47:02;945.8;;;23.0;36.3
40013;BME280;37387;42.672;23.334;2023-03-24T07:48:02;945.8;;;23.8;36.3
40013;BME280;37387;42.672;23.334;2023-03-24T07:49:02;945.7;;;23.6;35.6
40013;BME280;37387;42.672;23.334;2023-03-24T07:50:02;945.7;;;24.2;35.6
40013;BME280;37387;42.672;23.334;2023-03-24T07:51:02;945.7;;;24.5;34.5
40013;BME280;37387;42.672;23.334;2023-03-24T07:52:02;945.7;;;24.2;34.2
40013;BME280;37387;42.672;23.334;2023-03-24T07:53:02;945.7;;;24.9;34.3
40013;BME280;37387;42.672;23.334;2023-03-24T07:54:02;945.7;;;22.7;33.9
40013;BME280;37387;42.672;23.334;2023-03-24T07:55:02;945.7;;;22.0;36.0
40013;BME280;37387;42.672;23.334;2023-03-24T07:56:02;945.7;;;21.7;38.5
40013;BME280;37387;42.672;23.334;2023-03-24T07:57:02;945.7;;;21.4;38.5
40013;BME280;37387;42.672;23.334;2023-03-24T07:58:02;945.7;;;21.6;39.5
40013;BME280;37387;42.672;23.334;2023-03-24T07:59:02;945.7;;;22.6;38.6
40013;BME280;37387;42.672;23.334;2023-03-24T08:00:02;945.7;;;21.1;36.9
40013;BME280;37387;42.672;23.334;2023-03-24T08:01:02;945.6;;;21.2;39.0
40013;BME280;37387;42.672;23.334;2023-03-24T08:02:02;945.6;;;21.4;39.0
40013;BME280;37387;42.672;23.334;2023-03-24T08:03:02;945.7;;;21.9;39.0
40013;BME280;37387;42.672;23.334;2023-03-24T08:04:02;945.7;;;21.6;38.3
40013;BME280;37387;42.672;23.334;2023-03-24T08:05:02;945.6;;;21.9;38.3
40013;BME280;37387;42.672;23.334;2023-03-24T08:06:02;945.6;;;22.0;37.9
40013;BME280;37387;42.672;23.334;2023-03-24T08:07:02;945.5;;;23.0;37.6
40013;BME280;37387;42.672;23.334;2023-03-24T08:08:02;945.6;;;23.5;35.6
40013;BME280;37387;42.672;23.334;2023-03-24T08:09:02;945.6;;;23.4;35.6
40013;BME280;37387;42.672;23.334;2023-03-24T08:10:02;945.5;;;22.2;37.7
40013;BME280;37387;42.672;23.334;2023-03-24T08:11:02;945.5;;;21.8;37.7
40013;BME280;37387;42.672;23.334;2023-03-24T08:12:02;945.5;;;21.3;38.5
40013;BME280;37387;42.672;23.334;2023-03-24T08:13:02;945.5;;;21.7;39.4
40013;BME280;37387;42.672;23.334;2023-03-24T08:14:02;945.5;;;21.9;38.8
40013;BME280;37387;42.672;23.334;2023-03-24T08:15:02;945.4;;;22.1;38.3
40013;BME280;37387;42.672;23.334;2023-03-24T08:16:02;945.5;;;21.5;38.3
40013;BME280;37387;42.672;23.334;2023-03-24T08:17:02;945.5;;;21.3;38.7
40013;BME280;37387;42.672;23.334;2023-03-24T08:18:02;945.5;;;21.7;39.3
40013;BME280;37387;42.672;23.334;2023-03-24T08:19:02;945.5;;;22.5;37.8
40013;BME280;37387;42.672;23.334;2023-03-24T08:20:02;945.5;;;22.8;37.8
40013;BME280;37387;42.672;23.334;2023-03-24T08:21:02;945.5;;;22.6;36.9
40013;BME280;37387;42.672;23.334;2023-03-24T08:22:02;945.5;;;22.4;36.7
40013;BME280;37387;42.672;23.334;2023-03-24T08:23:02;945.5;;;21.6;37.1
40013;BME280;37387;42.672;23.334;2023-03-24T08:24:02;945.5;;;20.7;38.2
40013;BME280;37387;42.672;23.334;2023-03-24T08:25:02;945.5;;;20.8;39.8
40013;BME280;37387;42.672;23.334;2023-03-24T08:27:02;945.5;;;20.9;40.1
40013;BME280;37387;42.672;23.334;2023-03-24T08:28:02;945.5;;;21.9;38.5
40013;BME280;37387;42.672;23.334;2023-03-24T08:29:02;945.5;;;22.0;38.5
40013;BME280;37387;42.672;23.334;2023-03-24T08:31:02;945.4;;;22.4;38.1
40013;BME280;37387;42.672;23.334;2023-03-24T08:32:02;945.4;;;23.0;37.5
40013;BME280;37387;42.672;23.334;2023-03-24T08:33:02;945.4;;;23.1;36.9
40013;BME280;37387;42.672;23.334;2023-03-24T08:35:02;945.4;;;23.3;36.7
40013;BME280;37387;42.672;23.334;2023-03-24T08:36:02;945.4;;;22.4;35.9
40013;BME280;37387;42.672;23.334;2023-03-24T08:37:02;945.3;;;22.2;36.7
40013;BME280;37387;42.672;23.334;2023-03-24T08:38:02;945.3;;;22.4;37.7
40013;BME280;37387;42.672;23.334;2023-03-24T08:39:02;945.3;;;22.8;37.7
40013;BME280;37387;42.672;23.334;2023-03-24T08:40:02;945.3;;;21.7;36.9
40013;BME280;37387;42.672;23.334;2023-03-24T08:41:02;945.3;;;22.5;39.0
40013;BME280;37387;42.672;23.334;2023-03-24T08:42:02;945.3;;;23.0;37.5
40013;BME280;37387;42.672;23.334;2023-03-24T08:43:03;945.3;;;21.3;36.5
40013;BME280;37387;42.672;23.334;2023-03-24T08:44:02;945.2;;;21.6;38.6
40013;BME280;37387;42.672;23.334;2023-03-24T08:47:02;945.2;;;21.9;38.8
40013;BME280;37387;42.672;23.334;2023-03-24T08:48:03;945.2;;;21.4;38.1
40013;BME280;37387;42.672;23.334;2023-03-24T08:49:02;945.2;;;21.6;38.7
40013;BME280;37387;42.672;23.334;2023-03-24T08:50:02;945.2;;;22.4;39.2
40013;BME280;37387;42.672;23.334;2023-03-24T08:51:07;945.1;;;21.8;38.0
40013;BME280;37387;42.672;23.334;2023-03-24T08:52:02;945.1;;;20.4;38.5
40013;BME280;37387;42.672;23.334;2023-03-24T08:53:02;945.0;;;19.7;41.9
40013;BME280;37387;42.672;23.334;2023-03-24T08:54:02;945.0;;;20.8;41.9
40013;BME280;37387;42.672;23.334;2023-03-24T08:55:02;945.1;;;21.3;40.8
40013;BME280;37387;42.672;23.334;2023-03-24T08:56:02;945.1;;;21.6;38.9
40013;BME280;37387;42.672;23.334;2023-03-24T08:57:02;945.0;;;22.0;38.9
40013;BME280;37387;42.672;23.334;2023-03-24T08:58:02;945.0;;;21.8;38.1
40013;BME280;37387;42.672;23.334;2023-03-24T08:59:02;945.0;;;21.9;38.1
40013;BME280;37387;42.672;23.334;2023-03-24T09:00:02;945.0;;;22.0;38.3
40013;BME280;37387;42.672;23.334;2023-03-24T09:01:02;945.0;;;22.1;37.8
40013;BME280;37387;42.672;23.334;2023-03-24T09:03:02;945.0;;;21.6;37.9
40013;BME280;37387;42.672;23.334;2023-03-24T09:04:02;944.9;;;21.5;37.9
40013;BME280;37387;42.672;23.334;2023-03-24T09:05:02;944.9;;;21.0;37.9
40013;BME280;37387;42.672;23.334;2023-03-24T09:06:02;944.9;;;21.2;39.0
40013;BME280;37387;42.672;23.334;2023-03-24T09:07:02;944.9;;;21.0;39.2
40013;BME280;37387;42.672;23.334;2023-03-24T09:08:02;944.9;;;21.3;38.7
40013;BME280;37387;42.672;23.334;2023-03-24T09:09:02;944.9;;;21.2;38.7
40013;BME280;37387;42.672;23.334;2023-03-24T09:10:02;944.9;;;20.2;38.7
40013;BME280;37387;42.672;23.334;2023-03-24T09:11:02;944.9;;;21.1;40.6
40013;BME280;37387;42.672;23.334;2023-03-24T09:12:02;944.8;;;20.9;39.2
40013;BME280;37387;42.672;23.334;2023-03-24T09:13:02;944.9;;;22.0;38.2
40013;BME280;37387;42.672;23.334;2023-03-24T09:14:02;944.9;;;20.7;38.2
40013;BME280;37387;42.672;23.334;2023-03-24T09:15:03;944.8;;;20.8;39.6
40013;BME280;37387;42.672;23.334;2023-03-24T09:16:02;944.8;;;21.0;39.7
40013;BME280;37387;42.672;23.334;2023-03-24T09:17:02;944.8;;;21.8;38.3
40013;BME280;37387;42.672;23.334;2023-03-24T09:18:02;944.8;;;22.0;38.3
40013;BME280;37387;42.672;23.334;2023-03-24T09:19:02;944.8;;;22.1;37.6
40013;BME280;37387;42.672;23.334;2023-03-24T09:20:02;944.8;;;21.7;37.6
40013;BME280;37387;42.672;23.334;2023-03-24T09:21:02;944.8;;;21.3;38.9
40013;BME280;37387;42.672;23.334;2023-03-24T09:22:02;944.8;;;21.7;38.9
40013;BME280;37387;42.672;23.334;2023-03-24T09:23:02;944.7;;;21.9;38.8
40013;BME280;37387;42.672;23.334;2023-03-24T09:24:02;944.8;;;22.9;38.8
40013;BME280;37387;42.672;23.334;2023-03-24T09:25:02;944.8;;;23.6;37.4
40013;BME280;37387;42.672;23.334;2023-03-24T09:26:02;944.8;;;24.3;36.1
40013;BME280;37387;42.672;23.334;2023-03-24T09:28:02;944.8;;;24.9;35.0
40013;BME280;37387;42.672;23.334;2023-03-24T09:29:02;944.8;;;23.9;34.3
40013;BME280;37387;42.672;23.334;2023-03-24T09:30:02;944.7;;;22.9;34.8
40013;BME280;37387;42.672;23.334;2023-03-24T09:31:03;944.7;;;22.5;37.1
40013;BME280;37387;42.672;23.334;2023-03-24T09:32:02;944.7;;;22.4;37.1
40013;BME280;37387;42.672;23.334;2023-03-24T09:33:02;944.7;;;22.2;37.6
40013;BME280;37387;42.672;23.334;2023-03-24T09:34:02;944.6;;;22.1;37.9
40013;BME280;37387;42.672;23.334;2023-03-24T09:35:02;944.6;;;21.6;37.9
40013;BME280;37387;42.672;23.334;2023-03-24T09:36:03;944.6;;;22.4;39.4
40013;BME280;37387;42.672;23.334;2023-03-24T09:37:02;944.6;;;22.9;38.3
40013;BME280;37387;42.672;23.334;2023-03-24T09:38:02;944.6;;;22.6;37.2
40013;BME280;37387;42.672;23.334;2023-03-24T09:39:02;944.6;;;22.0;37.0
40013;BME280;37387;42.672;23.334;2023-03-24T09:40:02;944.6;;;21.9;38.1
40013;BME280;37387;42.672;23.334;2023-03-24T09:41:02;944.6;;;22.1;38.4
40013;BME280;37387;42.672;23.334;2023-03-24T09:42:02;944.6;;;21.6;38.1
40013;BME280;37387;42.672;23.334;2023-03-24T09:43:03;944.5;;;21.8;39.5
40013;BME280;37387;42.672;23.334;2023-03-24T09:45:03;944.5;;;21.7;38.2
40013;BME280;37387;42.672;23.334;2023-03-24T09:46:03;944.5;;;21.3;38.2